Weather at Jersey Airport

Public forecast

Using degrees Celsius for public forecast. Weather courtesy of forecast.io.

Current aviation weather report (METAR) for Jersey Airport

Retrieved 2021/01/15 20:20 UTC (9 minutes ago):

EGJJ 152020Z 13005KT 9999 FEW025 04/00 Q1030

Closest aviation forecast (TAF) to Jersey Airport

Closest forecast is Dinard-Pleurtuit-Saint-Malo Airport, 37.5 nm (69.5 km) S. Retrieved 2021/01/15 18:21 UTC (2 hours ago):

TAF LFRD 151700Z 1518/1618 VRB03KT 9999 SCT025 BECMG 1523/1601 17010KT BECMG 1603/1605 BKN012 TEMPO 1605/1614 4000 RA BKN005 BECMG 1606/1608 18015G30KT PROB40 TEMPO 1609/1614 3000 RADZ BKN003 BECMG 1613/1615 30015G25KT BKN020 TEMPO 1614/1618 BKN012 BECMG 1616/1618 31012KT